Time;durP1;ratioP1;P1;durP2;ratioP2;P2;SDS_P1;SDS_P2;PMS_P1;PMS_P2;Temp;Humidity;BMP_temperature;BMP_pressure;BME280_temperature;BME280_humidity;BME280_pressure;Samples;Min_cycle;Max_cycle;Signal;HPM_P1;HPM_P2
2021/12/27 00:00:50;;;;;;;19.80;12.68;;;3.40;86.30;;;;;;5004059;28;20026;-90
2021/12/27 00:03:17;;;;;;;21.55;13.18;;;3.40;86.40;;;;;;5001548;28;20052;-89
2021/12/27 00:05:42;;;;;;;16.60;11.50;;;3.40;86.50;;;;;;4995655;28;20105;-90
2021/12/27 00:08:08;;;;;;;16.45;11.30;;;3.40;86.60;;;;;;4994626;28;20049;-89
2021/12/27 00:10:34;;;;;;;22.00;14.55;;;3.40;86.60;;;;;;5011695;28;20029;-90
2021/12/27 00:12:59;;;;;;;19.92;13.02;;;3.30;86.70;;;;;;5007037;28;20013;-90
2021/12/27 00:15:25;;;;;;;18.60;12.60;;;3.30;86.70;;;;;;4995017;28;20084;-89
2021/12/27 00:17:51;;;;;;;16.23;11.25;;;3.30;86.90;;;;;;4983857;28;20491;-90
2021/12/27 00:20:19;;;;;;;20.23;13.93;;;3.30;87.00;;;;;;4996238;28;20030;-90
2021/12/27 00:22:46;;;;;;;18.52;12.57;;;3.30;86.90;;;;;;4995331;28;20031;-88
2021/12/27 00:25:13;;;;;;;16.30;11.43;;;3.30;87.00;;;;;;4992996;28;20050;-90
2021/12/27 00:27:39;;;;;;;20.63;13.98;;;3.40;87.10;;;;;;4991211;28;20058;-90
2021/12/27 00:30:07;;;;;;;16.55;11.45;;;3.50;86.90;;;;;;4993574;28;20046;-90
2021/12/27 00:32:33;;;;;;;21.23;13.90;;;3.50;86.90;;;;;;4994521;28;20014;-90
2021/12/27 00:34:59;;;;;;;16.15;11.13;;;3.50;86.70;;;;;;4992700;28;20109;-90
2021/12/27 00:37:25;;;;;;;14.75;10.27;;;3.50;86.60;;;;;;4993374;28;20073;-90
2021/12/27 00:39:50;;;;;;;17.02;10.43;;;3.60;86.70;;;;;;4998711;28;20075;-91
2021/12/27 00:42:16;;;;;;;16.50;11.52;;;3.60;86.40;;;;;;5003355;28;20038;-90
2021/12/27 00:44:41;;;;;;;13.38;9.32;;;3.60;86.40;;;;;;4992812;28;20023;-88
2021/12/27 00:47:07;;;;;;;18.20;12.05;;;3.70;86.30;;;;;;4993967;28;20027;-90
2021/12/27 00:49:33;;;;;;;16.90;10.38;;;3.70;86.10;;;;;;4993135;28;20015;-90
2021/12/27 00:51:58;;;;;;;18.95;12.63;;;3.70;86.00;;;;;;4998741;28;20105;-89
2021/12/27 00:54:24;;;;;;;16.67;10.70;;;3.70;86.00;;;;;;4996008;28;20085;-89
2021/12/27 00:56:50;;;;;;;19.08;13.50;;;3.70;86.10;;;;;;4992700;28;20019;-90
2021/12/27 00:59:15;;;;;;;13.00;9.10;;;3.70;86.10;;;;;;4993146;28;20017;-89
2021/12/27 01:01:41;;;;;;;17.10;11.25;;;3.80;86.20;;;;;;5003446;28;20038;-88
2021/12/27 01:04:07;;;;;;;16.73;12.13;;;3.80;86.20;;;;;;4992809;28;20023;-89
2021/12/27 01:06:33;;;;;;;16.38;11.77;;;3.80;86.10;;;;;;4993288;28;20054;-88
2021/12/27 01:08:59;;;;;;;14.60;9.73;;;3.80;86.00;;;;;;5001973;28;20025;-89
2021/12/27 01:14:15;;;;;;;14.95;10.07;;;3.90;86.00;;;;;;4999853;28;20054;-89
2021/12/27 01:16:44;;;;;;;14.43;10.00;;;4.00;85.90;;;;;;4997923;28;20076;-89
2021/12/27 01:19:10;;;;;;;14.32;9.82;;;3.90;85.60;;;;;;5002587;28;20356;-89
2021/12/27 01:21:36;;;;;;;18.73;13.82;;;4.00;85.70;;;;;;4994224;28;20034;-89
2021/12/27 01:24:04;;;;;;;18.75;12.07;;;3.90;85.50;;;;;;4991555;28;20109;-89
2021/12/27 01:26:30;;;;;;;14.88;10.45;;;3.90;85.60;;;;;;4992203;28;20081;-88
2021/12/27 01:28:57;;;;;;;16.23;11.25;;;3.90;85.80;;;;;;4998352;28;20021;-88
2021/12/27 01:31:24;;;;;;;19.25;11.75;;;3.90;85.80;;;;;;4995821;28;20030;-90
2021/12/27 01:33:49;;;;;;;15.68;10.45;;;3.90;85.90;;;;;;4999798;28;20026;-89
2021/12/27 01:36:16;;;;;;;16.75;10.95;;;3.90;85.90;;;;;;4991446;28;20030;-89
2021/12/27 01:38:42;;;;;;;17.73;11.75;;;3.90;86.00;;;;;;4997536;28;20133;-88
2021/12/27 01:41:11;;;;;;;16.40;10.88;;;3.90;85.90;;;;;;4991546;28;20038;-87
2021/12/27 01:43:38;;;;;;;12.48;8.38;;;3.80;85.90;;;;;;4998954;28;20029;-89
2021/12/27 01:46:08;;;;;;;18.20;11.93;;;3.90;86.20;;;;;;4992649;28;20030;-88
2021/12/27 01:48:38;;;;;;;13.18;9.32;;;3.90;86.10;;;;;;4993779;28;20514;-90
2021/12/27 01:51:07;;;;;;;11.90;8.65;;;3.90;86.20;;;;;;5002889;28;20080;-89
2021/12/27 01:53:34;;;;;;;15.73;10.75;;;3.90;86.10;;;;;;4995105;28;20029;-90
2021/12/27 01:56:01;;;;;;;14.20;9.95;;;4.00;86.00;;;;;;4991873;28;20046;-89
2021/12/27 01:58:27;;;;;;;18.13;12.65;;;4.00;86.00;;;;;;4992442;28;20072;-89
2021/12/27 02:00:54;;;;;;;16.10;11.95;;;3.90;85.90;;;;;;4993958;28;20031;-89
2021/12/27 02:03:23;;;;;;;17.98;10.95;;;3.90;86.30;;;;;;4997233;28;20468;-89
2021/12/27 02:05:49;;;;;;;19.90;13.15;;;3.90;86.50;;;;;;4990789;28;20141;-90
2021/12/27 02:08:15;;;;;;;15.43;9.70;;;3.90;86.60;;;;;;4999700;28;20054;-91
2021/12/27 02:10:41;;;;;;;20.15;13.32;;;3.90;86.80;;;;;;4996199;28;20019;-91
2021/12/27 02:13:08;;;;;;;14.90;9.90;;;3.90;86.80;;;;;;5001038;28;20054;-90
2021/12/27 02:15:33;;;;;;;18.33;11.20;;;3.90;87.00;;;;;;4995566;28;20030;-87
2021/12/27 02:17:59;;;;;;;16.17;11.32;;;3.90;87.00;;;;;;4998888;28;20021;-87
2021/12/27 02:20:27;;;;;;;14.00;9.52;;;3.90;87.00;;;;;;4990033;28;20022;-88
2021/12/27 02:22:59;;;;;;;18.85;12.68;;;3.90;87.00;;;;;;4984146;28;20037;-87
2021/12/27 02:25:25;;;;;;;16.80;12.05;;;3.90;87.00;;;;;;5007203;28;20022;-87
2021/12/27 02:27:51;;;;;;;16.48;11.05;;;3.90;87.00;;;;;;4997366;28;20473;-87
2021/12/27 02:30:18;;;;;;;15.32;10.45;;;4.00;87.00;;;;;;4992764;28;20145;-87
2021/12/27 02:32:48;;;;;;;14.93;10.52;;;3.90;87.00;;;;;;4987241;28;20031;-86
2021/12/27 02:35:18;;;;;;;16.52;12.02;;;3.90;87.00;;;;;;4987931;28;20022;-86
2021/12/27 02:37:44;;;;;;;13.35;9.63;;;4.00;87.00;;;;;;4994609;28;20077;-86
2021/12/27 02:40:10;;;;;;;15.05;10.32;;;4.00;87.00;;;;;;4989973;28;20022;-88
2021/12/27 02:42:52;;;;;;;14.52;9.85;;;4.00;87.00;;;;;;4999057;28;20034;-89
2021/12/27 02:45:17;;;;;;;16.40;10.20;;;4.10;87.10;;;;;;4996642;28;20401;-89
2021/12/27 02:47:43;;;;;;;11.55;8.45;;;4.10;86.80;;;;;;5007270;28;20085;-89
2021/12/27 02:50:09;;;;;;;16.13;10.68;;;4.20;86.70;;;;;;5006964;28;20070;-88
2021/12/27 02:52:34;;;;;;;15.73;10.90;;;4.20;86.50;;;;;;5003199;28;20034;-88
2021/12/27 02:55:00;;;;;;;13.65;9.05;;;4.20;86.40;;;;;;4999615;28;20026;-89
2021/12/27 02:57:25;;;;;;;11.07;7.50;;;4.20;86.40;;;;;;5001902;28;20027;-89
2021/12/27 02:59:52;;;;;;;16.65;11.00;;;4.30;86.40;;;;;;4990968;28;20397;-87
2021/12/27 03:02:18;;;;;;;14.38;9.77;;;4.30;86.20;;;;;;4995763;28;20034;-87
2021/12/27 03:04:46;;;;;;;12.45;8.70;;;4.30;86.30;;;;;;4992600;28;20018;-88
2021/12/27 03:07:11;;;;;;;13.75;8.90;;;4.30;86.20;;;;;;4993912;28;20121;-86
2021/12/27 03:09:38;;;;;;;16.45;10.93;;;4.40;86.20;;;;;;4999727;28;20525;-88
2021/12/27 03:12:04;;;;;;;15.50;10.10;;;4.30;86.20;;;;;;4993681;28;20057;-89
2021/12/27 03:14:30;;;;;;;13.65;9.10;;;4.30;86.30;;;;;;4993484;28;20485;-89
2021/12/27 03:16:55;;;;;;;15.50;10.27;;;4.40;86.50;;;;;;4994447;28;20045;-90
2021/12/27 03:19:21;;;;;;;13.23;9.20;;;4.50;86.40;;;;;;4993825;28;20168;-90
2021/12/27 03:21:46;;;;;;;17.00;10.73;;;4.50;86.30;;;;;;4995435;28;20485;-89
2021/12/27 03:24:12;;;;;;;14.20;9.48;;;4.50;86.20;;;;;;4994068;28;20105;-89
2021/12/27 03:26:37;;;;;;;15.45;10.43;;;4.50;86.10;;;;;;4993752;28;20096;-89
2021/12/27 03:29:03;;;;;;;13.73;9.35;;;4.40;86.20;;;;;;4994155;28;20521;-89
2021/12/27 03:31:29;;;;;;;14.55;10.10;;;4.40;86.50;;;;;;4994954;28;20034;-88
2021/12/27 03:33:56;;;;;;;14.02;9.98;;;4.40;86.60;;;;;;4995663;28;20457;-89
2021/12/27 03:36:23;;;;;;;12.70;8.20;;;4.40;86.60;;;;;;4994302;28;20050;-89
2021/12/27 03:38:52;;;;;;;13.55;8.95;;;4.40;86.60;;;;;;5012327;28;20473;-89
2021/12/27 03:41:21;;;;;;;14.32;9.63;;;4.40;86.60;;;;;;5004596;28;20022;-89
2021/12/27 03:43:46;;;;;;;14.95;9.55;;;4.50;86.70;;;;;;5002354;28;20507;-88
2021/12/27 03:46:13;;;;;;;15.40;9.70;;;4.50;86.60;;;;;;4993445;28;20057;-88
2021/12/27 03:48:39;;;;;;;15.77;9.50;;;4.50;86.60;;;;;;4992406;28;20482;-86
2021/12/27 03:51:06;;;;;;;13.45;9.20;;;4.50;86.50;;;;;;4991405;28;20044;-87
2021/12/27 03:53:32;;;;;;;14.63;9.30;;;4.60;86.60;;;;;;4997861;28;20651;-87
2021/12/27 03:55:58;;;;;;;16.77;10.57;;;4.60;86.50;;;;;;4992276;28;20026;-87
2021/12/27 03:58:31;;;;;;;13.20;8.65;;;4.60;86.70;;;;;;4995252;28;20026;-90
2021/12/27 04:01:13;;;;;;;15.23;9.60;;;4.60;86.80;;;;;;4993172;28;20034;-88
2021/12/27 04:03:39;;;;;;;15.25;10.05;;;4.70;86.70;;;;;;4992412;28;20470;-89
2021/12/27 04:06:04;;;;;;;16.98;10.25;;;4.70;86.50;;;;;;4999678;28;20117;-89
2021/12/27 04:08:30;;;;;;;18.95;10.68;;;4.70;86.50;;;;;;4999401;28;20034;-88
2021/12/27 04:10:55;;;;;;;14.38;8.20;;;4.70;86.70;;;;;;4998918;28;20022;-88
2021/12/27 04:13:22;;;;;;;18.15;11.32;;;4.60;86.70;;;;;;4993580;28;20058;-88
2021/12/27 04:15:49;;;;;;;18.45;10.60;;;4.60;86.80;;;;;;4996672;28;20014;-88
2021/12/27 04:18:16;;;;;;;18.67;11.32;;;4.60;86.90;;;;;;4991571;28;20027;-86
2021/12/27 04:20:42;;;;;;;18.75;10.85;;;4.60;87.10;;;;;;4996058;28;20125;-85
2021/12/27 04:23:08;;;;;;;19.73;12.07;;;4.70;87.20;;;;;;4995416;28;20039;-88
2021/12/27 04:25:34;;;;;;;17.63;10.90;;;4.60;87.00;;;;;;4994096;28;20048;-88
2021/12/27 04:27:59;;;;;;;17.42;11.35;;;4.50;87.10;;;;;;4998230;28;20056;-89
2021/12/27 04:30:25;;;;;;;19.70;11.98;;;4.60;87.30;;;;;;4996657;28;21235;-87
2021/12/27 04:32:51;;;;;;;21.73;12.57;;;4.60;87.40;;;;;;4988114;28;20022;-89
2021/12/27 04:35:20;;;;;;;14.38;8.52;;;4.50;87.50;;;;;;4995683;28;20027;-86
2021/12/27 04:37:47;;;;;;;13.43;8.40;;;4.50;88.40;;;;;;4999352;28;20094;-89
2021/12/27 04:40:15;;;;;;;20.55;10.77;;;4.50;87.90;;;;;;5001275;28;20504;-86
2021/12/27 04:42:44;;;;;;;14.32;9.07;;;4.60;87.90;;;;;;4993903;28;20034;-87
2021/12/27 04:45:11;;;;;;;14.10;9.38;;;4.60;87.90;;;;;;4993687;28;20264;-87
2021/12/27 04:47:38;;;;;;;15.85;9.98;;;4.60;87.80;;;;;;4991449;28;20085;-88
2021/12/27 04:50:04;;;;;;;17.10;10.02;;;4.70;87.80;;;;;;4992199;28;20489;-88
2021/12/27 04:52:29;;;;;;;18.33;10.77;;;4.70;87.80;;;;;;4992384;28;20090;-89
2021/12/27 04:54:55;;;;;;;21.13;12.73;;;4.70;87.90;;;;;;4996118;28;20160;-87
2021/12/27 04:57:20;;;;;;;16.33;9.40;;;4.70;87.80;;;;;;4996606;28;20565;-90
2021/12/27 04:59:46;;;;;;;17.52;10.85;;;4.80;87.90;;;;;;5002051;28;20031;-90
2021/12/27 05:02:11;;;;;;;19.60;12.32;;;4.80;87.70;;;;;;5000781;28;20386;-90
2021/12/27 05:04:37;;;;;;;19.23;12.07;;;4.80;87.60;;;;;;4995826;28;20410;-90
2021/12/27 05:07:03;;;;;;;20.55;12.70;;;4.90;87.80;;;;;;4995283;28;20030;-90
2021/12/27 05:09:28;;;;;;;20.90;12.23;;;4.90;87.70;;;;;;4997624;28;20022;-90
2021/12/27 05:11:54;;;;;;;15.40;9.80;;;4.80;87.60;;;;;;4993303;28;20382;-90
2021/12/27 05:14:19;;;;;;;18.58;9.65;;;4.80;87.60;;;;;;4998891;28;20034;-90
2021/12/27 05:16:45;;;;;;;16.98;10.32;;;4.90;87.70;;;;;;4998160;28;20034;-90
2021/12/27 05:19:11;;;;;;;19.50;12.05;;;4.90;87.70;;;;;;4992964;28;20030;-90
2021/12/27 05:21:36;;;;;;;15.75;10.88;;;4.90;87.70;;;;;;4994779;28;20070;-89
2021/12/27 05:24:02;;;;;;;18.02;10.73;;;5.00;87.70;;;;;;4993838;28;20023;-89
2021/12/27 05:26:31;;;;;;;17.30;10.40;;;5.00;87.70;;;;;;4987490;28;20674;-89
2021/12/27 05:28:56;;;;;;;17.33;11.30;;;5.10;87.70;;;;;;4996417;28;20038;-90
2021/12/27 05:31:22;;;;;;;13.77;8.32;;;5.00;87.60;;;;;;4980264;28;20038;-90
2021/12/27 05:33:47;;;;;;;15.35;10.00;;;5.10;87.70;;;;;;4986733;28;20385;-89
2021/12/27 05:36:13;;;;;;;13.90;8.65;;;5.10;87.60;;;;;;4992108;28;20030;-89
2021/12/27 05:38:40;;;;;;;21.90;9.25;;;5.20;87.70;;;;;;4995100;28;20065;-89
2021/12/27 05:41:06;;;;;;;11.45;7.32;;;5.20;87.50;;;;;;4996975;28;20030;-89
2021/12/27 05:43:31;;;;;;;14.15;8.82;;;5.30;87.40;;;;;;4999201;28;20042;-90
2021/12/27 05:45:57;;;;;;;17.15;11.23;;;5.30;87.30;;;;;;5005108;28;20061;-90
2021/12/27 05:48:22;;;;;;;15.82;9.90;;;5.40;87.20;;;;;;4996336;28;20509;-89
2021/12/27 05:50:48;;;;;;;13.13;8.23;;;5.40;87.10;;;;;;4995314;28;20018;-89
2021/12/27 05:53:14;;;;;;;10.95;6.70;;;5.40;87.00;;;;;;4992353;28;20030;-88
2021/12/27 05:55:40;;;;;;;17.00;10.68;;;5.40;86.90;;;;;;5002463;28;20025;-89
2021/12/27 05:58:05;;;;;;;15.98;10.20;;;5.40;86.80;;;;;;4994236;28;20388;-90
2021/12/27 06:00:31;;;;;;;15.30;9.73;;;5.40;86.80;;;;;;5001207;28;20026;-89
2021/12/27 06:02:57;;;;;;;18.85;10.57;;;5.30;86.90;;;;;;5002354;28;20322;-89
2021/12/27 06:05:23;;;;;;;12.65;8.00;;;5.30;87.00;;;;;;4991480;28;20019;-88
2021/12/27 06:07:50;;;;;;;13.40;8.73;;;5.40;87.20;;;;;;4996184;28;20026;-89
2021/12/27 06:10:16;;;;;;;15.23;9.73;;;5.30;87.10;;;;;;4997140;28;20025;-89
2021/12/27 06:12:42;;;;;;;17.95;11.15;;;5.40;87.10;;;;;;4992839;28;20201;-89
2021/12/27 06:15:08;;;;;;;18.33;11.18;;;5.30;87.00;;;;;;4993033;28;20022;-84
2021/12/27 06:17:34;;;;;;;22.17;12.90;;;5.30;87.20;;;;;;4994697;28;20533;-86
2021/12/27 06:20:02;;;;;;;17.48;9.35;;;5.30;87.30;;;;;;5006387;28;20501;-88
2021/12/27 06:22:28;;;;;;;17.73;10.48;;;5.20;87.50;;;;;;4999370;28;20125;-86
2021/12/27 06:24:54;;;;;;;16.23;11.20;;;5.20;87.70;;;;;;4994283;28;20117;-86
2021/12/27 06:27:20;;;;;;;18.92;11.80;;;5.20;87.80;;;;;;4994660;28;20042;-89
2021/12/27 06:29:45;;;;;;;14.93;9.65;;;5.20;87.90;;;;;;4993084;28;20030;-90
2021/12/27 06:32:13;;;;;;;17.13;11.10;;;5.20;88.00;;;;;;4994280;28;20440;-90
2021/12/27 06:34:40;;;;;;;15.65;10.40;;;5.20;88.10;;;;;;4989069;28;20104;-84
2021/12/27 06:37:06;;;;;;;20.02;11.38;;;5.20;88.10;;;;;;4993977;28;20023;-82
2021/12/27 06:39:31;;;;;;;19.98;11.68;;;5.20;88.00;;;;;;4993426;28;20168;-84
2021/12/27 06:41:57;;;;;;;16.83;10.95;;;5.10;88.00;;;;;;4994208;28;20039;-84
2021/12/27 06:44:23;;;;;;;14.07;9.40;;;5.00;88.10;;;;;;4987009;28;20023;-82
2021/12/27 06:46:48;;;;;;;18.20;12.05;;;5.00;88.30;;;;;;4983226;28;20027;-83
2021/12/27 06:49:14;;;;;;;16.00;10.68;;;5.00;88.40;;;;;;4986658;28;20022;-84
2021/12/27 06:51:42;;;;;;;18.15;10.85;;;5.00;88.40;;;;;;4985199;28;20045;-86
2021/12/27 06:54:07;;;;;;;15.95;10.88;;;4.90;88.50;;;;;;4991494;28;20040;-85
2021/12/27 06:56:33;;;;;;;17.67;11.52;;;5.00;88.70;;;;;;4993478;28;20113;-86
2021/12/27 06:58:59;;;;;;;12.45;8.18;;;5.00;88.70;;;;;;4990398;28;20476;-86
2021/12/27 07:01:24;;;;;;;15.05;9.77;;;5.00;88.70;;;;;;4987239;28;20445;-84
2021/12/27 07:03:50;;;;;;;16.65;10.15;;;5.00;88.60;;;;;;4988095;28;20392;-84
2021/12/27 07:06:16;;;;;;;13.02;8.50;;;5.10;88.60;;;;;;4990569;28;20101;-83
2021/12/27 07:08:43;;;;;;;24.27;12.27;;;5.00;88.50;;;;;;4991296;28;20531;-86
2021/12/27 07:11:09;;;;;;;20.65;11.77;;;5.10;88.60;;;;;;4994854;28;20444;-85
2021/12/27 07:13:35;;;;;;;14.52;9.70;;;5.00;88.60;;;;;;4987536;28;20038;-86
2021/12/27 07:16:00;;;;;;;17.77;11.57;;;5.00;88.70;;;;;;4989928;28;20121;-89
2021/12/27 07:18:26;;;;;;;18.77;12.70;;;5.00;88.90;;;;;;4993518;28;20355;-87
2021/12/27 07:20:52;;;;;;;18.35;11.38;;;5.00;89.20;;;;;;4993644;28;20030;-87
2021/12/27 07:23:19;;;;;;;17.60;11.52;;;5.00;89.30;;;;;;4994228;28;20069;-87
2021/12/27 07:25:45;;;;;;;12.27;8.70;;;5.10;89.40;;;;;;4996027;28;20106;-88
2021/12/27 07:28:10;;;;;;;10.93;7.57;;;5.10;89.40;;;;;;4996703;28;21625;-88
2021/12/27 07:30:36;;;;;;;10.43;7.15;;;5.10;89.30;;;;;;4993978;28;20022;-88
2021/12/27 07:33:02;;;;;;;18.73;12.38;;;5.20;89.20;;;;;;4987392;28;20022;-87
2021/12/27 07:35:28;;;;;;;13.73;9.77;;;5.10;89.20;;;;;;4991326;28;20393;-88
2021/12/27 07:37:53;;;;;;;13.80;9.30;;;5.10;89.40;;;;;;4988709;28;20030;-89
2021/12/27 07:40:19;;;;;;;12.65;8.75;;;5.20;89.60;;;;;;4992874;28;20133;-89
2021/12/27 07:42:44;;;;;;;9.80;6.55;;;5.20;89.50;;;;;;4994978;28;20172;-89
2021/12/27 07:45:11;;;;;;;13.52;8.82;;;5.30;89.50;;;;;;4985106;28;20031;-90
2021/12/27 07:47:36;;;;;;;8.80;6.55;;;5.30;89.40;;;;;;4979727;28;20045;-90
2021/12/27 07:50:05;;;;;;;9.95;6.53;;;5.30;89.30;;;;;;4990344;28;20074;-90
2021/12/27 07:52:30;;;;;;;14.68;8.88;;;5.30;89.20;;;;;;4987880;28;20065;-90
2021/12/27 07:55:06;;;;;;;13.93;9.52;;;5.40;89.10;;;;;;4985308;28;20429;-91
2021/12/27 07:57:31;;;;;;;12.93;8.80;;;5.40;89.10;;;;;;4985829;28;20042;-90
2021/12/27 07:59:57;;;;;;;19.63;11.95;;;5.40;89.00;;;;;;5004688;28;20496;-89
2021/12/27 08:02:23;;;;;;;14.20;10.52;;;5.30;89.10;;;;;;4985042;28;20062;-90
2021/12/27 08:04:48;;;;;;;18.10;12.30;;;5.40;89.20;;;;;;4997733;28;20022;-90
2021/12/27 08:07:16;;;;;;;20.67;12.30;;;5.40;89.40;;;;;;4994972;28;20159;-90
2021/12/27 08:09:42;;;;;;;15.48;10.35;;;5.40;89.40;;;;;;4985187;28;20034;-91
2021/12/27 08:12:12;;;;;;;16.73;10.70;;;5.40;89.40;;;;;;4995111;28;20041;-91
2021/12/27 08:14:38;;;;;;;14.95;9.05;;;5.50;89.30;;;;;;4992919;28;20034;-90
2021/12/27 08:17:05;;;;;;;16.92;10.32;;;5.50;89.30;;;;;;4988031;28;20489;-91
2021/12/27 08:19:33;;;;;;;20.08;13.48;;;5.50;89.40;;;;;;4977794;28;20147;-82
2021/12/27 08:22:00;;;;;;;15.32;10.82;;;5.50;89.50;;;;;;4983663;28;21603;-86
2021/12/27 08:24:26;;;;;;;16.10;10.15;;;5.50;89.60;;;;;;4986717;28;20104;-92
2021/12/27 08:26:51;;;;;;;19.58;11.93;;;5.40;89.60;;;;;;4988300;28;20038;-90
2021/12/27 08:29:17;;;;;;;14.23;9.63;;;5.40;89.70;;;;;;4984454;28;20029;-85
2021/12/27 08:31:42;;;;;;;15.75;10.48;;;5.40;89.60;;;;;;4986931;28;20046;-87
2021/12/27 08:34:08;;;;;;;18.25;12.27;;;5.50;89.70;;;;;;4987742;28;20026;-89
2021/12/27 08:36:34;;;;;;;15.60;10.38;;;5.40;89.80;;;;;;4983792;28;20035;-91
2021/12/27 08:39:00;;;;;;;10.98;8.00;;;5.50;89.80;;;;;;4988661;28;20026;-86
2021/12/27 08:41:27;;;;;;;12.20;8.32;;;5.50;89.80;;;;;;4987287;28;20121;-88
2021/12/27 08:44:01;;;;;;;14.27;9.35;;;5.50;89.80;;;;;;4985423;28;20473;-89
2021/12/27 08:46:27;;;;;;;10.55;7.57;;;5.60;89.70;;;;;;4990201;28;20127;-90
2021/12/27 08:48:53;;;;;;;14.93;10.57;;;5.60;89.60;;;;;;4988730;28;20039;-90
2021/12/27 08:51:18;;;;;;;14.60;10.40;;;5.60;89.50;;;;;;4991362;28;20045;-88
2021/12/27 08:53:44;;;;;;;13.48;8.73;;;5.70;89.50;;;;;;4991047;28;20026;-92
2021/12/27 08:56:14;;;;;;;17.10;11.80;;;5.70;89.40;;;;;;4995792;28;20041;-92
2021/12/27 08:58:40;;;;;;;18.60;11.88;;;5.70;89.50;;;;;;4992581;28;20030;-92
2021/12/27 09:01:07;;;;;;;15.85;11.02;;;5.70;89.70;;;;;;4995922;28;20042;-82
2021/12/27 09:03:34;;;;;;;16.02;10.50;;;5.70;89.70;;;;;;4987831;28;20026;-87
2021/12/27 09:06:01;;;;;;;17.67;11.90;;;5.60;89.80;;;;;;4987934;28;20076;-83
2021/12/27 09:08:26;;;;;;;16.52;11.40;;;5.60;89.90;;;;;;4986740;28;20030;-89
2021/12/27 09:10:53;;;;;;;13.93;9.40;;;5.70;90.00;;;;;;4996498;28;20026;-91
2021/12/27 09:13:20;;;;;;;13.13;9.43;;;5.70;90.00;;;;;;4991690;28;20030;-86
2021/12/27 09:15:45;;;;;;;17.40;11.18;;;5.70;90.00;;;;;;4988444;28;20023;-87
2021/12/27 09:18:11;;;;;;;16.33;11.32;;;5.70;89.90;;;;;;4986323;28;20027;-83
2021/12/27 09:20:37;;;;;;;13.15;8.80;;;5.80;89.90;;;;;;4980651;28;20014;-85
2021/12/27 09:23:03;;;;;;;15.18;9.80;;;5.80;90.00;;;;;;4988736;28;20077;-85
2021/12/27 09:25:29;;;;;;;11.90;8.07;;;5.80;90.00;;;;;;4988107;28;20032;-85
2021/12/27 09:27:54;;;;;;;15.05;10.30;;;5.80;89.90;;;;;;4986458;28;20026;-84
2021/12/27 09:30:20;;;;;;;17.05;12.02;;;5.80;89.80;;;;;;4986619;28;20033;-83
2021/12/27 09:32:45;;;;;;;13.65;9.38;;;5.80;89.80;;;;;;4983714;28;20022;-82
2021/12/27 09:35:11;;;;;;;16.83;11.45;;;5.80;90.00;;;;;;4987436;28;20042;-82
2021/12/27 09:37:37;;;;;;;15.35;10.70;;;5.80;90.00;;;;;;4984750;28;20045;-82
2021/12/27 09:40:03;;;;;;;13.18;8.85;;;5.80;90.10;;;;;;4980888;28;20049;-83
2021/12/27 09:42:29;;;;;;;16.58;11.57;;;5.80;90.10;;;;;;4982002;28;20049;-86
2021/12/27 09:44:57;;;;;;;13.13;9.20;;;5.80;90.10;;;;;;4982956;28;20030;-90
2021/12/27 09:47:25;;;;;;;11.40;8.45;;;5.80;90.10;;;;;;4988174;28;20030;-91
2021/12/27 09:49:51;;;;;;;14.23;10.15;;;5.80;90.10;;;;;;4985651;28;20027;-86
2021/12/27 09:52:17;;;;;;;16.50;10.50;;;5.80;90.10;;;;;;4983962;28;20023;-86
2021/12/27 09:54:49;;;;;;;13.48;9.93;;;5.90;90.10;;;;;;4981892;28;20038;-85
2021/12/27 09:57:15;;;;;;;14.27;10.13;;;5.90;90.10;;;;;;4981395;28;20058;-84
2021/12/27 09:59:41;;;;;;;12.85;9.38;;;5.90;90.10;;;;;;4982458;28;20229;-80
2021/12/27 10:02:07;;;;;;;15.10;10.43;;;5.90;90.10;;;;;;4981927;28;20030;-81
2021/12/27 10:04:35;;;;;;;17.85;12.70;;;5.90;90.10;;;;;;4982288;28;20042;-86
2021/12/27 10:07:01;;;;;;;17.70;11.90;;;5.90;90.30;;;;;;4983588;28;20036;-89
2021/12/27 10:09:28;;;;;;;15.13;10.73;;;5.90;90.40;;;;;;4983623;28;20022;-91
2021/12/27 10:11:53;;;;;;;16.10;11.18;;;5.90;90.40;;;;;;4992123;28;20102;-92
2021/12/27 10:14:24;;;;;;;16.67;11.48;;;5.90;90.40;;;;;;4999533;28;20077;-92
2021/12/27 10:16:52;;;;;;;13.73;9.77;;;6.00;90.40;;;;;;4989391;28;20030;-84
2021/12/27 10:19:19;;;;;;;17.88;12.52;;;6.00;90.30;;;;;;4989145;28;20026;-91
2021/12/27 10:21:47;;;;;;;18.67;12.23;;;6.00;90.30;;;;;;4986649;28;20126;-88
2021/12/27 10:24:27;;;;;;;17.98;12.27;;;6.00;90.30;;;;;;4987668;28;20035;-88
2021/12/27 10:26:56;;;;;;;15.80;10.75;;;6.00;90.40;;;;;;4986172;28;20042;-86
2021/12/27 10:29:27;;;;;;;15.43;11.45;;;6.00;90.40;;;;;;4984413;28;20022;-87
2021/12/27 10:31:56;;;;;;;13.17;9.07;;;6.10;90.40;;;;;;4995273;28;20485;-85
2021/12/27 10:34:24;;;;;;;17.00;11.45;;;6.20;90.40;;;;;;4985978;28;20613;-91
2021/12/27 10:37:03;;;;;;;15.55;11.25;;;6.20;90.30;;;;;;4988047;28;20064;-86
2021/12/27 10:39:50;;;;;;;19.60;12.82;;;6.20;90.40;;;;;;4982825;28;20472;-84
2021/12/27 10:42:29;;;;;;;13.23;9.15;;;6.20;90.40;;;;;;4980638;28;20066;-85
2021/12/27 10:45:01;;;;;;;18.15;13.00;;;6.20;90.40;;;;;;4985968;28;20387;-83
2021/12/27 10:47:41;;;;;;;17.42;11.93;;;6.20;90.30;;;;;;4979736;28;20500;-83
2021/12/27 10:50:13;;;;;;;15.93;11.20;;;6.30;90.40;;;;;;4987575;28;20027;-81
2021/12/27 10:52:40;;;;;;;14.57;10.13;;;6.30;90.40;;;;;;4985238;28;20023;-84
2021/12/27 10:55:07;;;;;;;15.80;11.10;;;6.40;90.40;;;;;;4988436;28;20480;-86
2021/12/27 10:57:33;;;;;;;16.83;10.90;;;6.40;90.60;;;;;;4996175;28;20022;-89
2021/12/27 11:00:22;;;;;;;16.20;11.30;;;6.40;90.40;;;;;;4991097;28;20031;-91
2021/12/27 11:02:48;;;;;;;18.67;13.02;;;6.40;90.40;;;;;;4996131;28;20074;-93
2021/12/27 11:05:21;;;;;;;13.98;10.00;;;6.30;90.40;;;;;;4984030;28;20097;-92
2021/12/27 11:07:46;;;;;;;16.98;12.13;;;6.40;90.50;;;;;;4990682;28;20034;-86
2021/12/27 11:10:14;;;;;;;15.38;11.27;;;6.40;90.50;;;;;;4989745;28;20104;-93
2021/12/27 11:12:40;;;;;;;18.67;12.52;;;6.50;90.50;;;;;;4997538;28;20386;-91
2021/12/27 11:15:09;;;;;;;17.50;12.25;;;6.50;90.50;;;;;;4989090;28;20019;-94
2021/12/27 11:17:37;;;;;;;16.30;11.23;;;6.50;90.50;;;;;;4987963;28;20037;-86
2021/12/27 11:20:05;;;;;;;16.88;11.38;;;6.50;90.50;;;;;;4981679;28;20068;-85
2021/12/27 11:22:30;;;;;;;17.50;12.02;;;6.50;90.60;;;;;;4989235;28;20574;-86
2021/12/27 11:25:03;;;;;;;17.80;11.75;;;6.50;90.60;;;;;;4983083;28;20133;-86
2021/12/27 11:27:33;;;;;;;12.05;8.73;;;6.60;90.60;;;;;;4990057;28;20037;-83
2021/12/27 11:30:09;;;;;;;13.70;10.00;;;6.60;90.60;;;;;;4991409;28;20018;-82
2021/12/27 11:32:34;;;;;;;18.23;12.50;;;6.70;90.50;;;;;;4987473;28;20398;-82
2021/12/27 11:35:09;;;;;;;10.43;7.70;;;6.70;90.40;;;;;;4992559;28;20026;-81
2021/12/27 11:37:42;;;;;;;13.35;9.52;;;6.70;90.40;;;;;;4993492;28;20494;-82
2021/12/27 11:40:11;;;;;;;14.38;10.25;;;6.80;90.40;;;;;;4988577;28;20188;-83
2021/12/27 11:43:00;;;;;;;11.93;8.45;;;6.80;90.40;;;;;;4988964;28;20042;-85
2021/12/27 11:45:44;;;;;;;11.90;7.97;;;6.80;90.40;;;;;;4989730;28;20030;-86
2021/12/27 11:48:15;;;;;;;17.65;11.50;;;6.90;90.40;;;;;;4996734;28;20146;-84
2021/12/27 11:50:57;;;;;;;16.13;11.07;;;6.90;90.30;;;;;;4990084;28;20029;-84
2021/12/27 11:53:28;;;;;;;15.85;10.70;;;6.90;90.30;;;;;;4985206;28;20584;-85
2021/12/27 11:55:54;;;;;;;12.18;8.65;;;6.90;90.30;;;;;;4992856;28;20042;-84
2021/12/27 11:58:35;;;;;;;12.20;8.43;;;7.00;90.40;;;;;;4994867;28;20097;-84
2021/12/27 12:01:25;;;;;;;13.02;9.70;;;7.00;90.30;;;;;;4991852;28;20035;-88
2021/12/27 12:03:55;;;;;;;13.98;10.15;;;7.00;90.30;;;;;;4996224;28;20029;-89
2021/12/27 12:06:37;;;;;;;13.80;9.55;;;7.10;90.40;;;;;;4990679;28;20105;-90
2021/12/27 12:09:29;;;;;;;15.63;9.95;;;7.10;90.40;;;;;;5000356;28;20457;-88
2021/12/27 12:12:04;;;;;;;12.38;9.15;;;7.10;90.40;;;;;;4995906;28;20478;-85
2021/12/27 12:14:35;;;;;;;11.93;8.75;;;7.20;90.40;;;;;;4987678;28;20478;-89
2021/12/27 12:17:04;;;;;;;16.40;10.45;;;7.30;90.60;;;;;;4990293;28;20049;-87
2021/12/27 12:19:45;;;;;;;15.63;11.50;;;7.30;90.20;;;;;;4984906;28;20019;-86
2021/12/27 12:22:34;;;;;;;13.73;9.77;;;7.30;90.30;;;;;;4998653;28;20034;-89
2021/12/27 12:25:18;;;;;;;12.65;9.50;;;7.30;90.40;;;;;;4990882;28;20032;-84
2021/12/27 12:28:05;;;;;;;12.45;9.02;;;7.40;90.40;;;;;;4987533;28;20473;-88
2021/12/27 12:30:40;;;;;;;11.02;8.50;;;7.40;90.30;;;;;;4992727;28;20035;-93
2021/12/27 12:33:11;;;;;;;15.43;10.77;;;7.40;90.30;;;;;;4985383;28;20041;-91
2021/12/27 12:35:43;;;;;;;11.48;8.00;;;7.40;90.30;;;;;;4989409;28;20027;-93
2021/12/27 12:38:13;;;;;;;;;;;7.50;90.30;;;;;;4982320;28;20042;-85
2021/12/27 12:41:08;;;;;;;12.30;9.40;;;7.60;90.20;;;;;;5003297;28;19936;-93
2021/12/27 12:43:38;;;;;;;13.70;9.82;;;7.60;90.20;;;;;;4983131;28;20046;-89
2021/12/27 12:46:25;;;;;;;11.82;8.23;;;7.60;90.20;;;;;;4989395;28;20033;-92